Latest Weather Observations for Frankston

IDV60801

Issued at 4:02 am EST Friday 31 July 2015 (issued every 30 minutes, with the page automatically refreshed every 10 minutes)

About weather observations | Map of weather stations | Latest weather observations for VIC | Other Formats
Station Details ID: 086371 Name: FRANKSTON AWS Lat: -38.15 Lon: 145.12 Height: 6.0 m
Data from the previous 72 hours. | See also: Recent months at Frankston
Date/Time
EST
Temp
°C
App
Temp
°C
Dew
Point
Rel
Hum
%
Delta-T
°C
Wind Press
QNH
hPa
Press
MSL
hPa
Rain
since 9 am
mm
Dir
 
Spd
km/h
Gust
km/h
Spd
kts
Gust
kts
31/04:00am 8.9 5.4 5.5 79 1.5 W 13 15 7 8 - - -
31/03:30am 8.8 4.9 5.4 79 1.5 W 15 17 8 9 - - -
31/03:00am 9.0 5.6 5.7 80 1.5 WSW 13 17 7 9 - - -
31/02:30am 9.2 4.4 5.8 79 1.6 WSW 20 24 11 13 - - -
31/02:00am 9.2 4.5 6.1 81 1.4 W 20 26 11 14 - - -
31/01:30am 9.3 3.9 6.2 81 1.4 WNW 24 28 13 15 - - -
31/01:00am 9.5 3.7 6.4 81 1.4 WNW 26 30 14 16 - - -
31/12:30am 9.7 3.9 6.4 80 1.5 WNW 26 30 14 16 - - -
31/12:00am 9.8 4.1 6.7 81 1.5 W 26 33 14 18 - - -
 
Date/Time
EST
Temp
°C
App
Temp
°C
Dew
Point
Rel
Hum
%
Delta-T
°C
Wind Press
QNH
hPa
Press
MSL
hPa
Rain
since 9 am
mm
Dir
 
Spd
km/h
Gust
km/h
Spd
kts
Gust
kts
30/11:30pm 10.0 4.3 6.7 80 1.5 WNW 26 32 14 17 - - -
30/11:00pm 10.0 4.0 6.9 81 1.5 WNW 28 35 15 19 - - -
30/10:30pm 10.2 5.0 7.3 82 1.4 WNW 24 28 13 15 - - -
30/10:00pm 10.0 4.8 7.4 84 1.2 NW 24 32 13 17 - - -
30/09:30pm 10.6 3.6 6.9 78 1.7 WNW 33 41 18 22 - - -
30/09:00pm 9.9 2.8 6.6 80 1.5 NNW 33 44 18 24 - - -
30/08:30pm 10.3 1.6 6.1 75 1.9 NNW 41 54 22 29 - - -
30/08:00pm 10.9 2.5 5.7 70 2.4 N 39 50 21 27 - - -
30/07:30pm 11.0 2.2 5.5 69 2.5 N 41 59 22 32 - - -
30/07:23pm 11.2 2.3 5.3 67 2.7 N 41 59 22 32 - - -
30/07:00pm 11.2 2.3 5.3 67 2.7 N 41 54 22 29 - - -
30/06:39pm 11.2 2.7 5.1 66 2.8 N 39 57 21 31 - - -
30/06:30pm 11.2 2.2 4.7 64 2.9 NNW 41 52 22 28 - - -
30/06:00pm 11.1 1.8 5.2 67 2.7 NNW 43 57 23 31 - - -
30/05:30pm 10.9 2.8 5.2 68 2.6 NNW 37 57 20 31 - - -
30/05:00pm 11.5 2.5 4.3 61 3.2 N 41 56 22 30 - - -
30/04:42pm 11.7 3.0 4.0 59 3.4 N 39 57 21 31 - - -
30/04:30pm 11.8 3.4 3.8 58 3.6 N 37 54 20 29 - - -
30/04:00pm 11.6 3.6 3.9 59 3.4 N 35 46 19 25 - - -
30/03:30pm 11.1 3.9 4.8 65 2.9 N 32 44 17 24 - - -
30/03:00pm 11.2 3.4 4.7 64 2.9 N 35 46 19 25 - - -
30/02:30pm 11.2 2.2 4.4 63 3.1 N 41 54 22 29 - - -
30/02:00pm 10.9 1.6 4.8 66 2.8 N 43 57 23 31 - - -
30/01:30pm 10.8 1.8 4.7 66 2.8 N 41 56 22 30 - - -
30/01:13pm 10.8 0.8 4.5 65 2.8 N 46 65 25 35 - - -
30/01:00pm 10.9 -0.3 4.1 63 3.0 N 52 70 28 38 - - -
30/12:52pm 10.9 0.1 4.1 63 3.0 N 50 70 27 38 - - -
30/12:30pm 11.0 0.2 4.0 62 3.1 N 50 67 27 36 - - -
30/12:04pm 11.4 1.7 3.7 59 3.4 N 44 70 24 38 - - -
30/12:00pm 11.2 1.6 4.4 63 3.1 N 44 57 24 31 - - -
30/11:30am 10.9 0.5 4.4 64 2.9 N 48 65 26 35 - - -
30/11:00am 11.0 1.9 4.2 63 3.0 N 41 59 22 32 - - -
30/10:41am 10.9 2.2 4.1 63 3.0 N 39 57 21 31 - - -
30/10:30am 10.8 1.4 4.3 64 2.9 N 43 57 23 31 - - -
30/10:20am 10.8 2.1 4.0 63 3.0 N 39 57 21 31 - - -
30/10:00am 10.5 3.2 4.4 66 2.7 N 32 43 17 23 - - -
30/09:30am 10.3 2.3 4.0 65 2.8 N 35 43 19 23 - - -
30/09:00am 10.2 2.8 4.1 66 2.7 N 32 41 17 22 - - -
30/08:30am 10.0 2.7 4.4 68 2.5 N 32 43 17 23 - - -
30/08:00am 9.6 4.1 4.0 68 2.5 N 22 28 12 15 - - -
30/07:30am 9.6 3.4 4.4 70 2.3 N 26 33 14 18 - - -
30/07:00am 9.7 3.5 4.3 69 2.4 N 26 33 14 18 - - -
30/06:30am 9.6 4.5 4.2 69 2.4 N 20 26 11 14 - - -
30/06:00am 9.7 4.7 4.5 70 2.3 N 20 26 11 14 - - -
30/05:30am 9.8 3.2 4.2 68 2.5 N 28 33 15 18 - - -
30/05:00am 9.7 4.2 4.1 68 2.5 N 22 30 12 16 - - -
30/04:30am 9.6 3.4 4.2 69 2.4 N 26 33 14 18 - - -
30/04:00am 9.5 4.1 4.3 70 2.3 N 22 28 12 15 - - -
30/03:30am 9.3 4.4 4.1 70 2.3 N 19 24 10 13 - - -
30/03:00am 9.0 4.8 4.0 71 2.2 N 15 19 8 10 - - -
30/02:30am 9.3 4.8 4.3 71 2.2 N 17 22 9 12 - - -
30/02:00am 9.6 5.2 4.8 72 2.1 N 17 20 9 11 - - -
30/01:30am 9.6 5.2 5.0 73 2.1 N 17 22 9 12 - - -
30/01:00am 9.3 5.7 4.9 74 2.0 NNE 13 20 7 11 - - -
30/12:30am 9.6 5.2 5.0 73 2.1 NNE 17 20 9 11 - - -
30/12:00am 9.8 5.5 5.2 73 2.1 N 17 20 9 11 - - -
 
Date/Time
EST
Temp
°C
App
Temp
°C
Dew
Point
Rel
Hum
%
Delta-T
°C
Wind Press
QNH
hPa
Press
MSL
hPa
Rain
since 9 am
mm
Dir
 
Spd
km/h
Gust
km/h
Spd
kts
Gust
kts
29/11:30pm 10.1 5.5 5.5 73 2.1 N 19 22 10 12 - - -
29/11:00pm 10.2 5.6 5.4 72 2.2 N 19 24 10 13 - - -
29/10:30pm 10.3 5.7 5.5 72 2.2 N 19 24 10 13 - - -
29/10:00pm 10.4 5.6 5.6 72 2.2 N 20 24 11 13 - - -
29/09:30pm 10.5 5.6 5.3 70 2.4 N 20 24 11 13 - - -
29/09:00pm 10.6 5.8 5.4 70 2.4 N 20 24 11 13 - - -
29/08:30pm 10.6 5.4 5.4 70 2.4 N 22 28 12 15 - - -
29/08:00pm 10.7 4.0 5.5 70 2.4 N 30 37 16 20 - - -
29/07:30pm 10.7 5.1 5.3 69 2.5 N 24 32 13 17 - - -
29/07:00pm 10.8 5.1 4.9 67 2.7 N 24 30 13 16 - - -
29/06:30pm 10.9 5.5 4.6 65 2.8 N 22 28 12 15 - - -
29/06:00pm 11.0 6.1 5.1 67 2.7 N 20 28 11 15 - - -
29/05:30pm 11.2 5.9 4.9 65 2.9 N 22 26 12 14 - - -
29/05:00pm 11.4 5.6 4.2 61 3.2 N 24 30 13 16 - - -
29/04:30pm 11.6 5.8 4.3 61 3.3 NNE 24 28 13 15 - - -
29/04:00pm 11.6 6.2 4.6 62 3.2 N 22 28 12 15 - - -
29/03:30pm 11.4 5.7 5.1 65 2.9 N 24 32 13 17 - - -
29/03:00pm 11.6 6.8 5.5 66 2.8 N 20 26 11 14 - - -
29/02:30pm 11.6 6.8 5.5 66 2.8 N 20 24 11 13 - - -
29/02:00pm 11.4 8.0 6.1 70 2.5 NNW 13 17 7 9 - - -
29/01:30pm 11.5 7.7 5.8 68 2.6 NNW 15 22 8 12 - - -
29/01:00pm 11.3 8.6 5.6 68 2.6 NW 9 13 5 7 - - -
29/12:30pm 11.0 7.9 5.5 69 2.5 NNW 11 13 6 7 - - -
29/12:00pm 10.9 8.3 5.9 71 2.3 NNW 9 13 5 7 - - -
29/11:30am 10.9 8.3 6.1 72 2.2 NNW 9 13 5 7 - - -
29/11:00am 10.6 7.6 6.0 73 2.1 N 11 13 6 7 - - -
29/10:30am 10.4 7.1 6.5 77 1.8 N 13 15 7 8 - - -
29/10:00am 10.0 6.8 6.7 80 1.5 N 13 15 7 8 - - -
29/09:30am 9.7 6.9 6.8 82 1.4 N 11 13 6 7 - - -
29/09:00am 9.7 7.9 7.0 83 1.3 NNE 6 7 3 4 - - -
29/08:30am 9.6 8.1 7.0 84 1.2 NE 4 6 2 3 - - -
29/08:00am 9.1 8.3 6.7 85 1.1 CALM 0 4 0 2 - - -
29/07:30am 9.3 7.5 7.1 86 1.0 E 6 6 3 3 - - -
29/07:00am 9.5 8.5 7.3 86 1.0 E 2 6 1 3 - - -
29/06:30am 9.5 8.5 7.3 86 1.0 ESE 2 4 1 2 - - -
29/06:00am 9.6 8.6 7.4 86 1.0 E 2 4 1 2 - - -
29/05:30am 9.6 8.6 7.5 87 1.0 E 2 4 1 2 - - -
29/05:00am 9.6 8.6 7.5 87 1.0 ESE 2 4 1 2 - - -
29/04:30am 9.8 9.3 7.9 88 0.9 CALM 0 0 0 0 - - -
29/04:00am 9.6 8.7 7.7 88 0.9 ESE 2 4 1 2 - - -
29/03:30am 9.8 8.9 7.9 88 0.9 NE 2 4 1 2 - - -
29/03:00am 9.8 9.4 8.1 89 0.8 CALM 0 4 0 2 - - -
29/02:30am 9.8 9.0 8.1 89 0.8 NNW 2 4 1 2 - - -
29/02:00am 9.8 9.0 8.1 89 0.8 NNW 2 4 1 2 - - -
29/01:30am 9.8 8.6 8.1 89 0.8 N 4 6 2 3 - - -
29/01:00am 9.8 8.6 7.9 88 0.9 N 4 6 2 3 - - -
29/12:30am 10.0 8.8 8.1 88 0.9 NW 4 6 2 3 - - -
29/12:00am 10.0 8.4 7.9 87 1.0 NW 6 7 3 4 - - -
 
Date/Time
EST
Temp
°C
App
Temp
°C
Dew
Point
Rel
Hum
%
Delta-T
°C
Wind Press
QNH
hPa
Press
MSL
hPa
Rain
since 9 am
mm
Dir
 
Spd
km/h
Gust
km/h
Spd
kts
Gust
kts
28/11:30pm 10.1 9.6 7.9 86 1.1 CALM 0 0 0 0 - - -
28/11:00pm 10.2 8.9 7.8 85 1.2 SW 4 4 2 2 - - -
28/10:30pm 10.4 8.8 7.8 84 1.3 WNW 6 9 3 5 - - -
28/10:00pm 10.5 8.8 7.6 82 1.4 WSW 6 9 3 5 - - -
28/09:30pm 10.3 9.7 7.2 81 1.5 CALM 0 0 0 0 - - -
28/09:00pm 10.6 10.0 7.3 80 1.6 CALM 0 0 0 0 - - -
28/08:30pm 10.4 9.7 7.1 80 1.6 CALM 0 0 0 0 - - -
28/08:00pm 10.4 9.7 7.1 80 1.6 CALM 0 0 0 0 - - -
28/07:30pm 10.6 10.0 7.3 80 1.6 CALM 0 0 0 0 - - -
28/07:00pm 10.8 10.2 7.5 80 1.6 CALM 0 0 0 0 - - -
28/06:30pm 10.7 10.1 7.4 80 1.6 CALM 0 0 0 0 - - -
28/06:00pm 10.5 9.8 7.0 79 1.7 CALM 0 0 0 0 - - -
28/05:30pm 10.6 9.5 6.9 78 1.7 WNW 2 2 1 1 - - -
28/05:00pm 10.8 9.3 6.9 77 1.8 NW 4 6 2 3 - - -
28/04:30pm 11.0 8.6 7.1 77 1.9 WSW 9 13 5 7 - - -
28/04:00pm 11.0 7.5 7.3 78 1.8 WSW 15 19 8 10 - - -
28/03:30pm 10.9 8.3 7.8 81 1.5 WSW 11 19 6 10 - - -
28/03:00pm 10.8 10.3 7.7 81 1.5 CALM 0 0 0 0 - - -
28/02:30pm 10.0 9.4 7.3 83 1.3 CALM 0 0 0 0 - - -
28/02:00pm 9.8 8.0 7.2 84 1.2 W 6 6 3 3 - - -
28/01:30pm 9.6 7.2 7.2 85 1.1 WSW 9 11 5 6 - - -
28/01:00pm 9.5 6.4 7.3 86 1.0 WSW 13 15 7 8 - - -
28/12:30pm 9.0 7.0 7.1 88 0.9 WSW 7 11 4 6 - - -
28/12:00pm 8.7 6.6 6.8 88 0.9 WNW 7 11 4 6 - - -
28/11:30am 8.6 6.1 6.7 88 0.9 W 9 13 5 7 - - -
28/11:00am 8.7 5.1 6.8 88 0.9 W 15 19 8 10 - - -
28/10:30am 8.8 4.3 6.9 88 0.9 W 20 26 11 14 - - -
28/10:00am 8.8 3.5 6.9 88 0.9 W 24 30 13 16 - - -
28/09:30am 8.8 3.5 6.9 88 0.9 W 24 28 13 15 - - -
28/09:00am 8.9 4.0 7.0 88 0.9 W 22 30 12 16 - - -
28/08:30am 8.9 4.5 7.2 89 0.8 W 20 26 11 14 - - -
28/08:00am 8.8 4.9 7.1 89 0.8 W 17 22 9 12 - - -
28/07:30am 9.1 5.6 7.4 89 0.8 W 15 20 8 11 - - -
28/07:00am 9.1 5.6 7.4 89 0.8 W 15 19 8 10 - - -
28/06:30am 8.9 5.0 7.0 88 0.9 W 17 20 9 11 - - -
28/06:00am 9.1 4.7 7.2 88 0.9 W 20 26 11 14 - - -
28/05:30am 9.0 3.8 7.1 88 0.9 WNW 24 30 13 16 - - -
28/05:00am 8.9 3.3 7.0 88 0.9 W 26 32 14 17 - - -
28/04:30am 9.1 3.5 7.2 88 0.9 W 26 32 14 17 - - -

Other Formats:

Comma delimited format used in spreadsheet applications
http://www.bom.gov.au/fwo/IDV60801/IDV60801.94871.axf

JavaScript Object Notation format (JSON) in row-major order
http://www.bom.gov.au/fwo/IDV60801/IDV60801.94871.json